Kezdőlap
METAR-TAF:

METAR-TAF

Repülőterek :

Cape Dyer, Nunavut, Kanada

földrajzi szélesség: 66-35N, földrajzi hosszúság: 061-37W, magasság: 393 m

Jelenlegi meteorológiai megfigyelések

A jelentés 1 órával és 6 perccel ezelõtt készült, 19:00 UTC
Északi szél 25 kt széllökések: 32 kt
Hőmérséklet -17°C
Páratartalom 84%
Légköri nyomás 995 hPa
Kevés felhő 100 lábon

METAR: CWFD 141900Z AUTO 01025G32KT ////SM //// FEW001 M17/M19 A2939

Idő: 15:06 (20:06 UTC)


TAF: hiányzik

Meteorológiai megfigyelések és előrejelzések több, mint 4000 repülőtéren (METAR és TAF jelentéseket).

A térképen piros és sárga pontok jelzik az elérhető meteorológiai állomásokat.

Mozgassa az egeret a pont fölött, hogy megjelenjen az állomás neve.

Azután kattintson az időjárási megfigyelések és előrejelzések megtekintéséhez.

A térkép megváltoztatása: kattintson a fekete keresztel jelölt zöld gombra ráközelítéshez, a vonallal jelölt zöld gombra távolításhoz, vagy a zöld nyilakra a szomszédos térképek eléréséhez.


METAR-TAF: